Terminal Aerodrome Forecast
Issued by NWS

Home | Current Version | Previous Version | Text Only | Print | Product List | Glossary Off
Versions: 1 2 3 4 5 6 7 8 9 10 11 12 13 14

520
FTUS42 KMHX 172332
TAFISO
TAF
KISO 172332Z 1800/1824 07005KT P6SM SCT050 BKN070
     FM180300 03005KT P6SM SCT110
     FM180900 01010KT 3SM BR BKN010
     FM181200 01010KT P6SM BKN010
     FM181800 01010KT P6SM BKN025
     FM182100 01010KT P6SM BKN035
     FM182300 36010KT P6SM SCT250
      AMD LTD TO CLD VIS AND WIND=

USA.gov is the U.S. government's official web portal to all federal, state and local government web resources and services.